sensor_id;sensor_type;location;lat;lon;timestamp;P1;durP1;ratioP1;P2;durP2;ratioP2
76667;SDS011;65585;51.166;16.922;2023-04-28T00:00:29;28.00;;;15.98;;
76667;SDS011;65585;51.166;16.922;2023-04-28T00:03:15;27.10;;;15.98;;
76667;SDS011;65585;51.166;16.922;2023-04-28T00:05:42;21.20;;;14.82;;
76667;SDS011;65585;51.166;16.922;2023-04-28T00:08:08;26.45;;;13.73;;
76667;SDS011;65585;51.166;16.922;2023-04-28T00:10:34;22.55;;;12.13;;
76667;SDS011;65585;51.166;16.922;2023-04-28T00:13:00;22.13;;;12.93;;
76667;SDS011;65585;51.166;16.922;2023-04-28T00:15:26;22.52;;;12.25;;
76667;SDS011;65585;51.166;16.922;2023-04-28T00:17:52;21.02;;;12.73;;
76667;SDS011;65585;51.166;16.922;2023-04-28T00:20:19;19.88;;;11.15;;
76667;SDS011;65585;51.166;16.922;2023-04-28T00:22:44;22.48;;;11.63;;
76667;SDS011;65585;51.166;16.922;2023-04-28T00:25:11;19.65;;;12.30;;
76667;SDS011;65585;51.166;16.922;2023-04-28T00:27:37;18.75;;;10.68;;
76667;SDS011;65585;51.166;16.922;2023-04-28T00:30:03;20.58;;;11.75;;
76667;SDS011;65585;51.166;16.922;2023-04-28T00:32:30;17.00;;;10.88;;
76667;SDS011;65585;51.166;16.922;2023-04-28T00:34:56;19.15;;;11.27;;
76667;SDS011;65585;51.166;16.922;2023-04-28T00:37:22;19.63;;;11.93;;
76667;SDS011;65585;51.166;16.922;2023-04-28T00:39:53;21.95;;;11.90;;
76667;SDS011;65585;51.166;16.922;2023-04-28T00:42:19;18.45;;;11.20;;
76667;SDS011;65585;51.166;16.922;2023-04-28T00:44:46;23.13;;;12.38;;
76667;SDS011;65585;51.166;16.922;2023-04-28T00:47:12;18.67;;;11.20;;
76667;SDS011;65585;51.166;16.922;2023-04-28T00:49:38;29.25;;;13.73;;
76667;SDS011;65585;51.166;16.922;2023-04-28T00:52:05;20.90;;;12.60;;
76667;SDS011;65585;51.166;16.922;2023-04-28T00:54:32;20.73;;;12.18;;
76667;SDS011;65585;51.166;16.922;2023-04-28T00:56:59;23.98;;;13.32;;
76667;SDS011;65585;51.166;16.922;2023-04-28T00:59:27;26.05;;;13.52;;
76667;SDS011;65585;51.166;16.922;2023-04-28T01:01:54;27.63;;;13.95;;
76667;SDS011;65585;51.166;16.922;2023-04-28T01:04:21;28.55;;;14.45;;
76667;SDS011;65585;51.166;16.922;2023-04-28T01:06:51;26.08;;;14.57;;
76667;SDS011;65585;51.166;16.922;2023-04-28T01:09:17;28.70;;;15.80;;
76667;SDS011;65585;51.166;16.922;2023-04-28T01:11:43;26.83;;;15.80;;
76667;SDS011;65585;51.166;16.922;2023-04-28T01:14:10;23.00;;;13.73;;
76667;SDS011;65585;51.166;16.922;2023-04-28T01:16:35;27.25;;;16.48;;
76667;SDS011;65585;51.166;16.922;2023-04-28T01:19:03;28.55;;;16.33;;
76667;SDS011;65585;51.166;16.922;2023-04-28T01:21:32;27.60;;;16.13;;
76667;SDS011;65585;51.166;16.922;2023-04-28T01:24:02;29.52;;;15.32;;
76667;SDS011;65585;51.166;16.922;2023-04-28T01:26:30;26.90;;;15.00;;
76667;SDS011;65585;51.166;16.922;2023-04-28T01:28:57;29.25;;;15.35;;
76667;SDS011;65585;51.166;16.922;2023-04-28T01:31:23;27.13;;;16.02;;
76667;SDS011;65585;51.166;16.922;2023-04-28T01:33:50;26.55;;;14.82;;
76667;SDS011;65585;51.166;16.922;2023-04-28T01:36:16;26.02;;;16.52;;
76667;SDS011;65585;51.166;16.922;2023-04-28T01:38:42;25.38;;;16.00;;
76667;SDS011;65585;51.166;16.922;2023-04-28T01:41:08;31.23;;;15.40;;
76667;SDS011;65585;51.166;16.922;2023-04-28T01:43:34;28.48;;;16.10;;
76667;SDS011;65585;51.166;16.922;2023-04-28T01:46:00;28.48;;;14.52;;
76667;SDS011;65585;51.166;16.922;2023-04-28T01:48:27;26.90;;;14.27;;
76667;SDS011;65585;51.166;16.922;2023-04-28T01:50:52;30.08;;;14.43;;
76667;SDS011;65585;51.166;16.922;2023-04-28T01:53:19;23.60;;;13.48;;
76667;SDS011;65585;51.166;16.922;2023-04-28T01:55:45;24.73;;;15.52;;
76667;SDS011;65585;51.166;16.922;2023-04-28T01:58:12;28.17;;;14.65;;
76667;SDS011;65585;51.166;16.922;2023-04-28T02:00:39;26.48;;;16.10;;
76667;SDS011;65585;51.166;16.922;2023-04-28T02:03:05;26.42;;;15.88;;
76667;SDS011;65585;51.166;16.922;2023-04-28T02:05:31;33.63;;;17.23;;
76667;SDS011;65585;51.166;16.922;2023-04-28T02:07:57;25.20;;;14.98;;
76667;SDS011;65585;51.166;16.922;2023-04-28T02:10:23;24.23;;;14.73;;
76667;SDS011;65585;51.166;16.922;2023-04-28T02:12:50;26.77;;;15.50;;
76667;SDS011;65585;51.166;16.922;2023-04-28T02:15:16;27.83;;;16.23;;
76667;SDS011;65585;51.166;16.922;2023-04-28T02:17:42;25.90;;;15.63;;
76667;SDS011;65585;51.166;16.922;2023-04-28T02:20:08;28.00;;;16.08;;
76667;SDS011;65585;51.166;16.922;2023-04-28T02:22:35;24.95;;;16.75;;
76667;SDS011;65585;51.166;16.922;2023-04-28T02:25:01;29.60;;;17.33;;
76667;SDS011;65585;51.166;16.922;2023-04-28T02:27:28;29.33;;;16.05;;
76667;SDS011;65585;51.166;16.922;2023-04-28T02:29:54;29.00;;;15.60;;
76667;SDS011;65585;51.166;16.922;2023-04-28T02:32:20;26.80;;;16.27;;
76667;SDS011;65585;51.166;16.922;2023-04-28T02:34:46;29.20;;;17.17;;
76667;SDS011;65585;51.166;16.922;2023-04-28T02:37:12;27.35;;;17.70;;
76667;SDS011;65585;51.166;16.922;2023-04-28T02:39:38;27.02;;;15.75;;
76667;SDS011;65585;51.166;16.922;2023-04-28T02:42:04;28.02;;;15.32;;
76667;SDS011;65585;51.166;16.922;2023-04-28T02:44:31;30.33;;;17.45;;
76667;SDS011;65585;51.166;16.922;2023-04-28T02:46:57;26.30;;;16.48;;
76667;SDS011;65585;51.166;16.922;2023-04-28T02:49:23;28.35;;;16.23;;
76667;SDS011;65585;51.166;16.922;2023-04-28T02:51:49;26.25;;;16.55;;
76667;SDS011;65585;51.166;16.922;2023-04-28T02:54:15;28.55;;;16.40;;
76667;SDS011;65585;51.166;16.922;2023-04-28T02:56:41;30.48;;;16.83;;
76667;SDS011;65585;51.166;16.922;2023-04-28T02:59:07;30.42;;;17.15;;
76667;SDS011;65585;51.166;16.922;2023-04-28T03:01:33;26.55;;;16.02;;
76667;SDS011;65585;51.166;16.922;2023-04-28T03:03:59;26.40;;;15.00;;
76667;SDS011;65585;51.166;16.922;2023-04-28T03:06:26;29.38;;;15.77;;
76667;SDS011;65585;51.166;16.922;2023-04-28T03:08:52;25.33;;;15.30;;
76667;SDS011;65585;51.166;16.922;2023-04-28T03:11:18;30.02;;;15.38;;
76667;SDS011;65585;51.166;16.922;2023-04-28T03:13:45;26.95;;;16.58;;
76667;SDS011;65585;51.166;16.922;2023-04-28T03:16:11;31.25;;;16.67;;
76667;SDS011;65585;51.166;16.922;2023-04-28T03:18:37;26.20;;;16.42;;
76667;SDS011;65585;51.166;16.922;2023-04-28T03:21:03;28.17;;;16.05;;
76667;SDS011;65585;51.166;16.922;2023-04-28T03:23:30;25.23;;;15.20;;
76667;SDS011;65585;51.166;16.922;2023-04-28T03:25:59;25.27;;;14.60;;
76667;SDS011;65585;51.166;16.922;2023-04-28T03:28:25;25.10;;;14.80;;
76667;SDS011;65585;51.166;16.922;2023-04-28T03:30:51;28.45;;;15.95;;
76667;SDS011;65585;51.166;16.922;2023-04-28T03:33:17;29.48;;;15.38;;
76667;SDS011;65585;51.166;16.922;2023-04-28T03:35:44;27.75;;;14.43;;
76667;SDS011;65585;51.166;16.922;2023-04-28T03:38:09;28.55;;;15.75;;
76667;SDS011;65585;51.166;16.922;2023-04-28T03:40:36;28.10;;;15.50;;
76667;SDS011;65585;51.166;16.922;2023-04-28T03:43:02;27.08;;;15.73;;
76667;SDS011;65585;51.166;16.922;2023-04-28T03:45:28;26.50;;;14.65;;
76667;SDS011;65585;51.166;16.922;2023-04-28T03:47:55;29.80;;;14.82;;
76667;SDS011;65585;51.166;16.922;2023-04-28T03:50:21;29.25;;;16.27;;
76667;SDS011;65585;51.166;16.922;2023-04-28T03:52:47;28.10;;;17.35;;
76667;SDS011;65585;51.166;16.922;2023-04-28T03:55:13;32.08;;;16.58;;
76667;SDS011;65585;51.166;16.922;2023-04-28T03:57:39;26.70;;;14.85;;
76667;SDS011;65585;51.166;16.922;2023-04-28T04:00:05;26.35;;;16.80;;
76667;SDS011;65585;51.166;16.922;2023-04-28T04:02:32;42.25;;;20.88;;
76667;SDS011;65585;51.166;16.922;2023-04-28T04:04:58;35.08;;;18.92;;
76667;SDS011;65585;51.166;16.922;2023-04-28T04:07:24;37.20;;;19.88;;
76667;SDS011;65585;51.166;16.922;2023-04-28T04:09:51;31.80;;;18.55;;
76667;SDS011;65585;51.166;16.922;2023-04-28T04:12:17;30.67;;;18.88;;
76667;SDS011;65585;51.166;16.922;2023-04-28T04:14:43;29.92;;;18.23;;
76667;SDS011;65585;51.166;16.922;2023-04-28T04:17:16;27.92;;;16.83;;
76667;SDS011;65585;51.166;16.922;2023-04-28T04:19:42;23.92;;;14.32;;
76667;SDS011;65585;51.166;16.922;2023-04-28T04:22:08;23.05;;;14.75;;
76667;SDS011;65585;51.166;16.922;2023-04-28T04:24:35;22.00;;;14.98;;
76667;SDS011;65585;51.166;16.922;2023-04-28T04:27:01;23.48;;;13.98;;
76667;SDS011;65585;51.166;16.922;2023-04-28T04:29:27;24.10;;;14.05;;
76667;SDS011;65585;51.166;16.922;2023-04-28T04:31:53;24.23;;;15.35;;
76667;SDS011;65585;51.166;16.922;2023-04-28T04:34:19;27.10;;;15.77;;
76667;SDS011;65585;51.166;16.922;2023-04-28T04:36:45;21.02;;;12.98;;
76667;SDS011;65585;51.166;16.922;2023-04-28T04:39:11;22.67;;;13.65;;
76667;SDS011;65585;51.166;16.922;2023-04-28T04:41:37;24.77;;;13.65;;
76667;SDS011;65585;51.166;16.922;2023-04-28T04:44:04;23.17;;;15.63;;
76667;SDS011;65585;51.166;16.922;2023-04-28T04:46:30;23.40;;;14.18;;
76667;SDS011;65585;51.166;16.922;2023-04-28T04:48:56;20.55;;;13.90;;
76667;SDS011;65585;51.166;16.922;2023-04-28T04:51:25;23.25;;;14.07;;
76667;SDS011;65585;51.166;16.922;2023-04-28T04:53:53;21.55;;;12.75;;
76667;SDS011;65585;51.166;16.922;2023-04-28T04:56:19;22.95;;;13.35;;
76667;SDS011;65585;51.166;16.922;2023-04-28T04:58:46;22.10;;;13.85;;
76667;SDS011;65585;51.166;16.922;2023-04-28T05:01:12;24.42;;;14.07;;
76667;SDS011;65585;51.166;16.922;2023-04-28T05:03:38;21.20;;;13.00;;
76667;SDS011;65585;51.166;16.922;2023-04-28T05:06:04;21.83;;;13.20;;
76667;SDS011;65585;51.166;16.922;2023-04-28T05:08:31;22.90;;;13.40;;
76667;SDS011;65585;51.166;16.922;2023-04-28T05:10:56;22.48;;;13.77;;
76667;SDS011;65585;51.166;16.922;2023-04-28T05:13:26;22.45;;;14.77;;
76667;SDS011;65585;51.166;16.922;2023-04-28T05:15:52;20.35;;;13.90;;
76667;SDS011;65585;51.166;16.922;2023-04-28T05:18:18;29.02;;;15.68;;
76667;SDS011;65585;51.166;16.922;2023-04-28T05:20:44;25.95;;;15.23;;
76667;SDS011;65585;51.166;16.922;2023-04-28T05:23:10;27.45;;;16.45;;
76667;SDS011;65585;51.166;16.922;2023-04-28T05:25:36;22.05;;;14.48;;
76667;SDS011;65585;51.166;16.922;2023-04-28T05:28:03;25.27;;;15.32;;
76667;SDS011;65585;51.166;16.922;2023-04-28T05:30:32;24.63;;;15.35;;
76667;SDS011;65585;51.166;16.922;2023-04-28T05:32:59;26.08;;;15.48;;
76667;SDS011;65585;51.166;16.922;2023-04-28T05:35:27;26.65;;;15.65;;
76667;SDS011;65585;51.166;16.922;2023-04-28T05:37:55;24.08;;;13.52;;
76667;SDS011;65585;51.166;16.922;2023-04-28T05:40:22;29.60;;;14.60;;
76667;SDS011;65585;51.166;16.922;2023-04-28T05:42:49;26.17;;;14.18;;
76667;SDS011;65585;51.166;16.922;2023-04-28T05:45:15;20.92;;;13.93;;
76667;SDS011;65585;51.166;16.922;2023-04-28T05:47:41;26.25;;;14.70;;
76667;SDS011;65585;51.166;16.922;2023-04-28T05:50:07;25.77;;;13.95;;
76667;SDS011;65585;51.166;16.922;2023-04-28T05:52:34;22.33;;;13.48;;
76667;SDS011;65585;51.166;16.922;2023-04-28T05:55:00;23.58;;;13.38;;
76667;SDS011;65585;51.166;16.922;2023-04-28T05:57:27;24.20;;;14.57;;
76667;SDS011;65585;51.166;16.922;2023-04-28T05:59:53;26.30;;;13.40;;
76667;SDS011;65585;51.166;16.922;2023-04-28T06:02:19;25.23;;;12.68;;
76667;SDS011;65585;51.166;16.922;2023-04-28T06:04:45;20.58;;;13.40;;
76667;SDS011;65585;51.166;16.922;2023-04-28T06:07:11;21.58;;;14.30;;
76667;SDS011;65585;51.166;16.922;2023-04-28T06:09:37;21.85;;;13.68;;
76667;SDS011;65585;51.166;16.922;2023-04-28T06:12:04;25.05;;;14.05;;
76667;SDS011;65585;51.166;16.922;2023-04-28T06:14:30;23.45;;;14.43;;
76667;SDS011;65585;51.166;16.922;2023-04-28T06:16:57;24.45;;;13.05;;
76667;SDS011;65585;51.166;16.922;2023-04-28T06:19:23;22.27;;;13.98;;
76667;SDS011;65585;51.166;16.922;2023-04-28T06:21:49;18.88;;;13.50;;
76667;SDS011;65585;51.166;16.922;2023-04-28T06:26:43;21.13;;;12.10;;
76667;SDS011;65585;51.166;16.922;2023-04-28T06:29:09;21.02;;;14.20;;
76667;SDS011;65585;51.166;16.922;2023-04-28T06:31:36;19.23;;;13.63;;
76667;SDS011;65585;51.166;16.922;2023-04-28T06:34:02;22.27;;;12.45;;
76667;SDS011;65585;51.166;16.922;2023-04-28T06:36:28;19.67;;;12.73;;
76667;SDS011;65585;51.166;16.922;2023-04-28T06:38:54;23.50;;;13.82;;
76667;SDS011;65585;51.166;16.922;2023-04-28T06:41:20;20.92;;;13.73;;
76667;SDS011;65585;51.166;16.922;2023-04-28T06:43:47;25.05;;;13.07;;
76667;SDS011;65585;51.166;16.922;2023-04-28T06:46:13;17.65;;;10.82;;
76667;SDS011;65585;51.166;16.922;2023-04-28T06:48:41;21.83;;;13.00;;
76667;SDS011;65585;51.166;16.922;2023-04-28T06:51:13;18.35;;;12.73;;
76667;SDS011;65585;51.166;16.922;2023-04-28T06:53:39;19.27;;;12.60;;
76667;SDS011;65585;51.166;16.922;2023-04-28T06:56:06;19.80;;;13.98;;
76667;SDS011;65585;51.166;16.922;2023-04-28T06:58:32;20.58;;;13.23;;
76667;SDS011;65585;51.166;16.922;2023-04-28T07:00:59;19.70;;;12.30;;
76667;SDS011;65585;51.166;16.922;2023-04-28T07:03:25;24.73;;;13.18;;
76667;SDS011;65585;51.166;16.922;2023-04-28T07:05:52;20.05;;;11.80;;
76667;SDS011;65585;51.166;16.922;2023-04-28T07:08:18;19.42;;;12.00;;
76667;SDS011;65585;51.166;16.922;2023-04-28T07:10:44;19.17;;;12.18;;
76667;SDS011;65585;51.166;16.922;2023-04-28T07:13:10;16.67;;;11.85;;
76667;SDS011;65585;51.166;16.922;2023-04-28T07:15:37;26.45;;;12.35;;
76667;SDS011;65585;51.166;16.922;2023-04-28T07:18:02;16.70;;;11.18;;
76667;SDS011;65585;51.166;16.922;2023-04-28T07:20:29;20.50;;;12.38;;
76667;SDS011;65585;51.166;16.922;2023-04-28T07:22:55;20.45;;;12.90;;
76667;SDS011;65585;51.166;16.922;2023-04-28T07:25:21;18.65;;;12.35;;
76667;SDS011;65585;51.166;16.922;2023-04-28T07:27:47;15.82;;;10.98;;
76667;SDS011;65585;51.166;16.922;2023-04-28T07:30:14;18.80;;;11.25;;
76667;SDS011;65585;51.166;16.922;2023-04-28T07:32:40;17.65;;;10.95;;
76667;SDS011;65585;51.166;16.922;2023-04-28T07:35:08;16.35;;;10.88;;
76667;SDS011;65585;51.166;16.922;2023-04-28T07:37:35;15.85;;;10.13;;
76667;SDS011;65585;51.166;16.922;2023-04-28T07:40:02;15.35;;;11.48;;
76667;SDS011;65585;51.166;16.922;2023-04-28T07:42:28;20.85;;;11.35;;
76667;SDS011;65585;51.166;16.922;2023-04-28T07:44:55;15.20;;;9.68;;
76667;SDS011;65585;51.166;16.922;2023-04-28T07:47:22;18.65;;;10.13;;
76667;SDS011;65585;51.166;16.922;2023-04-28T07:49:49;17.55;;;9.38;;
76667;SDS011;65585;51.166;16.922;2023-04-28T07:52:15;18.63;;;11.10;;
76667;SDS011;65585;51.166;16.922;2023-04-28T07:54:41;17.40;;;10.10;;
76667;SDS011;65585;51.166;16.922;2023-04-28T07:57:07;18.17;;;10.52;;
76667;SDS011;65585;51.166;16.922;2023-04-28T07:59:34;16.90;;;9.77;;
76667;SDS011;65585;51.166;16.922;2023-04-28T08:04:28;17.58;;;10.23;;
76667;SDS011;65585;51.166;16.922;2023-04-28T08:09:22;12.25;;;8.43;;
76667;SDS011;65585;51.166;16.922;2023-04-28T08:11:48;11.40;;;6.45;;
76667;SDS011;65585;51.166;16.922;2023-04-28T08:14:14;9.82;;;7.70;;
76667;SDS011;65585;51.166;16.922;2023-04-28T08:16:40;9.13;;;6.57;;
76667;SDS011;65585;51.166;16.922;2023-04-28T08:19:06;12.73;;;7.57;;
76667;SDS011;65585;51.166;16.922;2023-04-28T08:21:33;13.20;;;6.10;;
76667;SDS011;65585;51.166;16.922;2023-04-28T08:23:59;11.68;;;6.78;;
76667;SDS011;65585;51.166;16.922;2023-04-28T08:26:26;11.82;;;5.88;;
76667;SDS011;65585;51.166;16.922;2023-04-28T08:28:52;8.32;;;6.18;;
76667;SDS011;65585;51.166;16.922;2023-04-28T08:31:18;9.57;;;6.28;;
76667;SDS011;65585;51.166;16.922;2023-04-28T08:33:44;9.30;;;6.40;;
76667;SDS011;65585;51.166;16.922;2023-04-28T08:36:13;10.98;;;6.97;;
76667;SDS011;65585;51.166;16.922;2023-04-28T08:38:43;10.10;;;6.47;;
76667;SDS011;65585;51.166;16.922;2023-04-28T08:41:09;9.80;;;7.03;;
76667;SDS011;65585;51.166;16.922;2023-04-28T08:43:44;9.52;;;6.60;;
76667;SDS011;65585;51.166;16.922;2023-04-28T08:46:10;10.90;;;6.10;;
76667;SDS011;65585;51.166;16.922;2023-04-28T08:48:40;9.57;;;6.30;;
76667;SDS011;65585;51.166;16.922;2023-04-28T08:51:08;10.82;;;6.18;;
76667;SDS011;65585;51.166;16.922;2023-04-28T08:53:36;7.30;;;5.60;;
76667;SDS011;65585;51.166;16.922;2023-04-28T08:56:06;12.25;;;6.20;;
76667;SDS011;65585;51.166;16.922;2023-04-28T08:58:34;9.50;;;5.78;;
76667;SDS011;65585;51.166;16.922;2023-04-28T09:01:01;8.70;;;5.82;;
76667;SDS011;65585;51.166;16.922;2023-04-28T09:03:29;9.30;;;5.45;;
76667;SDS011;65585;51.166;16.922;2023-04-28T09:05:57;9.48;;;5.93;;
76667;SDS011;65585;51.166;16.922;2023-04-28T09:08:23;8.25;;;5.85;;
76667;SDS011;65585;51.166;16.922;2023-04-28T09:11:07;10.98;;;5.45;;
76667;SDS011;65585;51.166;16.922;2023-04-28T09:13:35;10.98;;;6.05;;
76667;SDS011;65585;51.166;16.922;2023-04-28T09:16:01;8.63;;;6.35;;
76667;SDS011;65585;51.166;16.922;2023-04-28T09:18:28;10.05;;;6.03;;
76667;SDS011;65585;51.166;16.922;2023-04-28T09:21:07;9.65;;;5.95;;
76667;SDS011;65585;51.166;16.922;2023-04-28T09:23:35;11.68;;;6.45;;
76667;SDS011;65585;51.166;16.922;2023-04-28T09:26:12;12.20;;;7.10;;
76667;SDS011;65585;51.166;16.922;2023-04-28T09:28:38;9.18;;;7.07;;
76667;SDS011;65585;51.166;16.922;2023-04-28T09:31:05;12.10;;;7.10;;
76667;SDS011;65585;51.166;16.922;2023-04-28T09:33:31;7.97;;;5.88;;
76667;SDS011;65585;51.166;16.922;2023-04-28T09:35:57;10.63;;;6.20;;
76667;SDS011;65585;51.166;16.922;2023-04-28T09:38:23;12.68;;;6.65;;
76667;SDS011;65585;51.166;16.922;2023-04-28T09:40:54;14.88;;;7.20;;
76667;SDS011;65585;51.166;16.922;2023-04-28T09:43:34;10.43;;;5.97;;
76667;SDS011;65585;51.166;16.922;2023-04-28T09:46:03;9.70;;;6.47;;
76667;SDS011;65585;51.166;16.922;2023-04-28T09:48:34;9.95;;;6.53;;
76667;SDS011;65585;51.166;16.922;2023-04-28T09:51:03;11.70;;;7.97;;
76667;SDS011;65585;51.166;16.922;2023-04-28T09:53:31;10.95;;;6.40;;
76667;SDS011;65585;51.166;16.922;2023-04-28T09:55:58;10.25;;;6.47;;
76667;SDS011;65585;51.166;16.922;2023-04-28T09:58:26;9.82;;;5.97;;
76667;SDS011;65585;51.166;16.922;2023-04-28T10:00:56;14.18;;;6.78;;
76667;SDS011;65585;51.166;16.922;2023-04-28T10:03:25;8.60;;;6.68;;
76667;SDS011;65585;51.166;16.922;2023-04-28T10:05:52;9.60;;;7.03;;
76667;SDS011;65585;51.166;16.922;2023-04-28T10:08:19;8.68;;;5.70;;
76667;SDS011;65585;51.166;16.922;2023-04-28T10:10:49;9.88;;;5.70;;
76667;SDS011;65585;51.166;16.922;2023-04-28T10:13:18;10.95;;;6.28;;
76667;SDS011;65585;51.166;16.922;2023-04-28T10:15:45;6.47;;;5.45;;
76667;SDS011;65585;51.166;16.922;2023-04-28T10:18:12;10.40;;;5.72;;
76667;SDS011;65585;51.166;16.922;2023-04-28T10:20:42;8.23;;;5.53;;
76667;SDS011;65585;51.166;16.922;2023-04-28T10:26:12;11.35;;;6.43;;
76667;SDS011;65585;51.166;16.922;2023-04-28T10:28:43;9.90;;;5.82;;
76667;SDS011;65585;51.166;16.922;2023-04-28T10:31:11;14.68;;;6.85;;
76667;SDS011;65585;51.166;16.922;2023-04-28T10:33:39;7.20;;;5.50;;
76667;SDS011;65585;51.166;16.922;2023-04-28T10:36:06;10.63;;;5.10;;
76667;SDS011;65585;51.166;16.922;2023-04-28T10:38:33;10.15;;;5.88;;
76667;SDS011;65585;51.166;16.922;2023-04-28T10:41:00;8.00;;;5.38;;
76667;SDS011;65585;51.166;16.922;2023-04-28T10:51:36;7.57;;;4.65;;
76667;SDS011;65585;51.166;16.922;2023-04-28T10:56:20;5.82;;;5.07;;
76667;SDS011;65585;51.166;16.922;2023-04-28T11:01:29;9.88;;;4.95;;
76667;SDS011;65585;51.166;16.922;2023-04-28T11:03:57;8.05;;;4.70;;
76667;SDS011;65585;51.166;16.922;2023-04-28T11:06:32;6.75;;;4.82;;
76667;SDS011;65585;51.166;16.922;2023-04-28T11:09:02;8.30;;;5.13;;
76667;SDS011;65585;51.166;16.922;2023-04-28T11:17:01;7.13;;;5.13;;
76667;SDS011;65585;51.166;16.922;2023-04-28T11:19:30;6.53;;;4.60;;
76667;SDS011;65585;51.166;16.922;2023-04-28T11:21:58;7.28;;;4.18;;
76667;SDS011;65585;51.166;16.922;2023-04-28T11:24:26;7.00;;;4.50;;
76667;SDS011;65585;51.166;16.922;2023-04-28T11:26:58;6.53;;;5.15;;
76667;SDS011;65585;51.166;16.922;2023-04-28T11:31:58;8.52;;;5.15;;
76667;SDS011;65585;51.166;16.922;2023-04-28T11:34:24;8.63;;;4.22;;
76667;SDS011;65585;51.166;16.922;2023-04-28T11:36:51;7.63;;;3.83;;
76667;SDS011;65585;51.166;16.922;2023-04-28T11:39:24;9.27;;;4.25;;
76667;SDS011;65585;51.166;16.922;2023-04-28T11:41:57;6.05;;;4.55;;
76667;SDS011;65585;51.166;16.922;2023-04-28T11:44:25;7.75;;;4.70;;
76667;SDS011;65585;51.166;16.922;2023-04-28T11:46:53;7.32;;;4.57;;
76667;SDS011;65585;51.166;16.922;2023-04-28T11:49:22;7.80;;;4.13;;
76667;SDS011;65585;51.166;16.922;2023-04-28T11:52:04;8.57;;;4.35;;
76667;SDS011;65585;51.166;16.922;2023-04-28T11:54:31;6.65;;;4.03;;
76667;SDS011;65585;51.166;16.922;2023-04-28T11:56:58;5.32;;;4.20;;
76667;SDS011;65585;51.166;16.922;2023-04-28T11:59:34;7.28;;;4.50;;
76667;SDS011;65585;51.166;16.922;2023-04-28T12:02:04;5.07;;;3.83;;
76667;SDS011;65585;51.166;16.922;2023-04-28T12:04:32;7.80;;;4.18;;
76667;SDS011;65585;51.166;16.922;2023-04-28T12:09:32;6.97;;;3.90;;
76667;SDS011;65585;51.166;16.922;2023-04-28T12:12:00;10.40;;;3.83;;
76667;SDS011;65585;51.166;16.922;2023-04-28T12:14:28;6.50;;;3.67;;
76667;SDS011;65585;51.166;16.922;2023-04-28T12:16:54;9.63;;;3.67;;
76667;SDS011;65585;51.166;16.922;2023-04-28T12:19:23;4.25;;;3.22;;
76667;SDS011;65585;51.166;16.922;2023-04-28T12:24:25;7.05;;;3.22;;
76667;SDS011;65585;51.166;16.922;2023-04-28T12:26:51;4.78;;;3.13;;
76667;SDS011;65585;51.166;16.922;2023-04-28T12:29:39;6.45;;;3.67;;
76667;SDS011;65585;51.166;16.922;2023-04-28T12:32:06;5.35;;;3.35;;
76667;SDS011;65585;51.166;16.922;2023-04-28T12:34:34;6.38;;;3.63;;
76667;SDS011;65585;51.166;16.922;2023-04-28T12:37:01;7.28;;;3.65;;
76667;SDS011;65585;51.166;16.922;2023-04-28T12:39:28;6.00;;;3.30;;
76667;SDS011;65585;51.166;16.922;2023-04-28T12:41:55;5.13;;;2.92;;
76667;SDS011;65585;51.166;16.922;2023-04-28T12:46:48;5.70;;;3.40;;
76667;SDS011;65585;51.166;16.922;2023-04-28T12:49:14;7.32;;;3.47;;
76667;SDS011;65585;51.166;16.922;2023-04-28T12:51:40;5.32;;;2.95;;
76667;SDS011;65585;51.166;16.922;2023-04-28T12:54:07;7.78;;;3.38;;
76667;SDS011;65585;51.166;16.922;2023-04-28T12:56:33;4.45;;;3.03;;
76667;SDS011;65585;51.166;16.922;2023-04-28T12:59:00;3.67;;;2.92;;
76667;SDS011;65585;51.166;16.922;2023-04-28T13:01:27;4.57;;;3.20;;
76667;SDS011;65585;51.166;16.922;2023-04-28T13:03:54;5.32;;;3.10;;
76667;SDS011;65585;51.166;16.922;2023-04-28T13:06:23;4.93;;;3.30;;
76667;SDS011;65585;51.166;16.922;2023-04-28T13:08:49;9.43;;;3.70;;
76667;SDS011;65585;51.166;16.922;2023-04-28T13:11:15;5.15;;;3.00;;
76667;SDS011;65585;51.166;16.922;2023-04-28T13:13:42;5.97;;;3.42;;
76667;SDS011;65585;51.166;16.922;2023-04-28T13:16:09;7.05;;;3.58;;
76667;SDS011;65585;51.166;16.922;2023-04-28T13:18:37;5.35;;;3.33;;
76667;SDS011;65585;51.166;16.922;2023-04-28T13:21:03;4.63;;;3.30;;
76667;SDS011;65585;51.166;16.922;2023-04-28T13:23:30;5.35;;;3.42;;
76667;SDS011;65585;51.166;16.922;2023-04-28T13:25:59;7.20;;;3.20;;
76667;SDS011;65585;51.166;16.922;2023-04-28T13:28:26;5.05;;;2.88;;
76667;SDS011;65585;51.166;16.922;2023-04-28T13:30:52;5.03;;;3.25;;
76667;SDS011;65585;51.166;16.922;2023-04-28T13:33:19;4.68;;;3.20;;
76667;SDS011;65585;51.166;16.922;2023-04-28T13:35:45;5.45;;;2.80;;
76667;SDS011;65585;51.166;16.922;2023-04-28T13:38:12;5.07;;;3.10;;
76667;SDS011;65585;51.166;16.922;2023-04-28T13:40:38;4.20;;;3.13;;
76667;SDS011;65585;51.166;16.922;2023-04-28T13:43:04;3.92;;;2.88;;
76667;SDS011;65585;51.166;16.922;2023-04-28T13:45:30;5.03;;;2.80;;
76667;SDS011;65585;51.166;16.922;2023-04-28T13:47:57;6.00;;;3.40;;
76667;SDS011;65585;51.166;16.922;2023-04-28T13:50:23;10.70;;;4.47;;
76667;SDS011;65585;51.166;16.922;2023-04-28T13:52:50;5.85;;;3.00;;
76667;SDS011;65585;51.166;16.922;2023-04-28T13:55:17;4.35;;;3.03;;
76667;SDS011;65585;51.166;16.922;2023-04-28T13:57:43;6.35;;;3.65;;
76667;SDS011;65585;51.166;16.922;2023-04-28T14:00:10;5.82;;;3.22;;
76667;SDS011;65585;51.166;16.922;2023-04-28T14:02:37;6.40;;;3.28;;
76667;SDS011;65585;51.166;16.922;2023-04-28T14:05:04;4.13;;;3.17;;
76667;SDS011;65585;51.166;16.922;2023-04-28T14:07:30;4.30;;;2.92;;
76667;SDS011;65585;51.166;16.922;2023-04-28T14:09:56;5.15;;;3.08;;
76667;SDS011;65585;51.166;16.922;2023-04-28T14:12:23;4.72;;;2.83;;
76667;SDS011;65585;51.166;16.922;2023-04-28T14:14:49;4.95;;;3.13;;
76667;SDS011;65585;51.166;16.922;2023-04-28T14:17:16;5.85;;;2.60;;
76667;SDS011;65585;51.166;16.922;2023-04-28T14:19:42;3.22;;;2.53;;
76667;SDS011;65585;51.166;16.922;2023-04-28T14:22:09;4.07;;;3.05;;
76667;SDS011;65585;51.166;16.922;2023-04-28T14:24:35;5.63;;;3.05;;
76667;SDS011;65585;51.166;16.922;2023-04-28T14:27:02;5.40;;;2.95;;
76667;SDS011;65585;51.166;16.922;2023-04-28T14:29:29;7.53;;;3.22;;
76667;SDS011;65585;51.166;16.922;2023-04-28T14:31:55;7.50;;;2.92;;
76667;SDS011;65585;51.166;16.922;2023-04-28T14:34:21;5.15;;;3.03;;
76667;SDS011;65585;51.166;16.922;2023-04-28T14:36:49;5.20;;;3.13;;
76667;SDS011;65585;51.166;16.922;2023-04-28T14:39:16;5.15;;;2.78;;
76667;SDS011;65585;51.166;16.922;2023-04-28T14:41:42;6.25;;;3.15;;
76667;SDS011;65585;51.166;16.922;2023-04-28T14:44:08;5.90;;;3.08;;
76667;SDS011;65585;51.166;16.922;2023-04-28T14:46:35;4.53;;;2.63;;
76667;SDS011;65585;51.166;16.922;2023-04-28T14:49:01;5.75;;;2.97;;
76667;SDS011;65585;51.166;16.922;2023-04-28T14:51:28;3.75;;;2.80;;
76667;SDS011;65585;51.166;16.922;2023-04-28T14:53:54;6.07;;;3.00;;
76667;SDS011;65585;51.166;16.922;2023-04-28T14:56:21;6.93;;;3.10;;